sensor_id;sensor_type;location;lat;lon;timestamp;temperature;humidity
1680;DHT22;838;51.794;12.258;2022-08-02T00:01:35;19.70;22.40
1680;DHT22;838;51.794;12.258;2022-08-02T00:04:00;19.80;22.10
1680;DHT22;838;51.794;12.258;2022-08-02T00:06:26;19.90;23.60
1680;DHT22;838;51.794;12.258;2022-08-02T00:08:52;20.10;22.70
1680;DHT22;838;51.794;12.258;2022-08-02T00:11:18;20.20;23.00
1680;DHT22;838;51.794;12.258;2022-08-02T00:13:44;20.00;19.10
1680;DHT22;838;51.794;12.258;2022-08-02T00:16:10;19.70;22.40
1680;DHT22;838;51.794;12.258;2022-08-02T00:18:36;19.90;22.60
1680;DHT22;838;51.794;12.258;2022-08-02T00:21:02;19.90;22.30
1680;DHT22;838;51.794;12.258;2022-08-02T00:23:28;19.80;22.20
1680;DHT22;838;51.794;12.258;2022-08-02T00:25:53;19.60;23.00
1680;DHT22;838;51.794;12.258;2022-08-02T00:28:19;19.70;22.20
1680;DHT22;838;51.794;12.258;2022-08-02T00:30:45;19.90;22.20
1680;DHT22;838;51.794;12.258;2022-08-02T00:33:11;20.00;22.80
1680;DHT22;838;51.794;12.258;2022-08-02T00:35:36;20.10;22.70
1680;DHT22;838;51.794;12.258;2022-08-02T00:38:02;20.10;22.70
1680;DHT22;838;51.794;12.258;2022-08-02T00:40:29;20.10;22.30
1680;DHT22;838;51.794;12.258;2022-08-02T00:43:09;20.10;22.70
1680;DHT22;838;51.794;12.258;2022-08-02T00:45:37;20.10;22.70
1680;DHT22;838;51.794;12.258;2022-08-02T00:48:05;20.10;22.00
1680;DHT22;838;51.794;12.258;2022-08-02T00:50:32;20.00;22.30
1680;DHT22;838;51.794;12.258;2022-08-02T00:52:58;19.90;23.10
1680;DHT22;838;51.794;12.258;2022-08-02T00:55:24;19.90;23.00
1680;DHT22;838;51.794;12.258;2022-08-02T00:57:50;19.80;23.50
1680;DHT22;838;51.794;12.258;2022-08-02T01:00:16;19.80;24.40
1680;DHT22;838;51.794;12.258;2022-08-02T01:02:42;19.60;25.30
1680;DHT22;838;51.794;12.258;2022-08-02T01:05:08;19.30;26.40
1680;DHT22;838;51.794;12.258;2022-08-02T01:07:34;19.10;26.10
1680;DHT22;838;51.794;12.258;2022-08-02T01:10:00;19.20;25.70
1680;DHT22;838;51.794;12.258;2022-08-02T01:12:26;19.20;25.90
1680;DHT22;838;51.794;12.258;2022-08-02T01:14:54;19.20;26.00
1680;DHT22;838;51.794;12.258;2022-08-02T01:28:51;19.00;27.80
1680;DHT22;838;51.794;12.258;2022-08-02T01:34:12;19.00;27.10
1680;DHT22;838;51.794;12.258;2022-08-02T01:36:45;19.00;26.60
1680;DHT22;838;51.794;12.258;2022-08-02T01:39:13;19.00;26.80
1680;DHT22;838;51.794;12.258;2022-08-02T01:41:40;19.00;26.60
1680;DHT22;838;51.794;12.258;2022-08-02T01:44:09;18.90;27.10
1680;DHT22;838;51.794;12.258;2022-08-02T01:46:39;18.70;27.80
1680;DHT22;838;51.794;12.258;2022-08-02T01:49:11;18.60;28.00
1680;DHT22;838;51.794;12.258;2022-08-02T01:51:40;18.70;28.50
1680;DHT22;838;51.794;12.258;2022-08-02T01:54:28;18.70;27.90
1680;DHT22;838;51.794;12.258;2022-08-02T01:56:55;18.70;28.40
1680;DHT22;838;51.794;12.258;2022-08-02T01:59:22;18.70;29.10
1680;DHT22;838;51.794;12.258;2022-08-02T02:01:50;18.70;28.80
1680;DHT22;838;51.794;12.258;2022-08-02T02:04:19;18.70;29.10
1680;DHT22;838;51.794;12.258;2022-08-02T02:06:45;18.70;29.00
1680;DHT22;838;51.794;12.258;2022-08-02T02:09:13;18.90;28.20
1680;DHT22;838;51.794;12.258;2022-08-02T02:11:42;18.90;27.30
1680;DHT22;838;51.794;12.258;2022-08-02T02:14:09;18.90;27.90
1680;DHT22;838;51.794;12.258;2022-08-02T02:16:37;18.80;28.30
1680;DHT22;838;51.794;12.258;2022-08-02T02:19:06;18.80;28.10
1680;DHT22;838;51.794;12.258;2022-08-02T02:21:33;18.80;27.60
1680;DHT22;838;51.794;12.258;2022-08-02T02:23:59;18.70;27.80
1680;DHT22;838;51.794;12.258;2022-08-02T02:26:26;18.70;28.40
1680;DHT22;838;51.794;12.258;2022-08-02T02:28:54;18.60;28.20
1680;DHT22;838;51.794;12.258;2022-08-02T02:31:20;18.60;28.00
1680;DHT22;838;51.794;12.258;2022-08-02T02:33:50;18.60;27.90
1680;DHT22;838;51.794;12.258;2022-08-02T02:36:18;18.60;27.30
1680;DHT22;838;51.794;12.258;2022-08-02T02:38:44;18.60;27.50
1680;DHT22;838;51.794;12.258;2022-08-02T02:41:12;18.60;27.50
1680;DHT22;838;51.794;12.258;2022-08-02T02:43:39;18.70;27.50
1680;DHT22;838;51.794;12.258;2022-08-02T02:46:06;18.70;27.60
1680;DHT22;838;51.794;12.258;2022-08-02T02:48:34;18.50;28.10
1680;DHT22;838;51.794;12.258;2022-08-02T02:51:03;18.40;28.90
1680;DHT22;838;51.794;12.258;2022-08-02T02:53:30;18.30;28.80
1680;DHT22;838;51.794;12.258;2022-08-02T02:55:56;18.20;28.90
1680;DHT22;838;51.794;12.258;2022-08-02T02:58:22;18.00;30.00
1680;DHT22;838;51.794;12.258;2022-08-02T03:00:48;18.00;29.50
1680;DHT22;838;51.794;12.258;2022-08-02T03:03:33;18.00;29.50
1680;DHT22;838;51.794;12.258;2022-08-02T03:06:00;18.00;29.40
1680;DHT22;838;51.794;12.258;2022-08-02T03:08:25;18.00;29.60
1680;DHT22;838;51.794;12.258;2022-08-02T03:10:51;18.00;29.00
1680;DHT22;838;51.794;12.258;2022-08-02T03:13:18;18.20;28.50
1680;DHT22;838;51.794;12.258;2022-08-02T03:15:45;18.40;26.60
1680;DHT22;838;51.794;12.258;2022-08-02T03:18:35;18.50;25.70
1680;DHT22;838;51.794;12.258;2022-08-02T03:21:02;18.60;25.30
1680;DHT22;838;51.794;12.258;2022-08-02T03:23:29;18.50;25.30
1680;DHT22;838;51.794;12.258;2022-08-02T03:25:55;18.40;25.70
1680;DHT22;838;51.794;12.258;2022-08-02T03:28:21;18.40;25.10
1680;DHT22;838;51.794;12.258;2022-08-02T03:30:47;18.30;25.80
1680;DHT22;838;51.794;12.258;2022-08-02T03:33:13;18.30;25.70
1680;DHT22;838;51.794;12.258;2022-08-02T03:35:40;18.30;25.90
1680;DHT22;838;51.794;12.258;2022-08-02T03:38:07;18.20;26.30
1680;DHT22;838;51.794;12.258;2022-08-02T03:40:34;18.00;27.80
1680;DHT22;838;51.794;12.258;2022-08-02T03:43:01;18.00;28.60
1680;DHT22;838;51.794;12.258;2022-08-02T03:45:27;17.90;28.60
1680;DHT22;838;51.794;12.258;2022-08-02T03:47:54;17.90;29.00
1680;DHT22;838;51.794;12.258;2022-08-02T03:50:21;17.90;28.50
1680;DHT22;838;51.794;12.258;2022-08-02T03:52:50;18.00;28.10
1680;DHT22;838;51.794;12.258;2022-08-02T03:55:16;18.30;27.90
1680;DHT22;838;51.794;12.258;2022-08-02T03:57:43;18.20;27.20
1680;DHT22;838;51.794;12.258;2022-08-02T04:00:11;18.20;27.50
1680;DHT22;838;51.794;12.258;2022-08-02T04:02:38;18.30;26.80
1680;DHT22;838;51.794;12.258;2022-08-02T04:05:04;18.50;25.50
1680;DHT22;838;51.794;12.258;2022-08-02T04:07:30;18.50;25.70
1680;DHT22;838;51.794;12.258;2022-08-02T04:09:55;18.50;25.30
1680;DHT22;838;51.794;12.258;2022-08-02T04:12:21;18.50;26.00
1680;DHT22;838;51.794;12.258;2022-08-02T04:14:47;18.30;27.90
1680;DHT22;838;51.794;12.258;2022-08-02T04:17:14;18.20;27.90
1680;DHT22;838;51.794;12.258;2022-08-02T04:20:11;18.20;28.10
1680;DHT22;838;51.794;12.258;2022-08-02T04:22:57;18.20;27.50
1680;DHT22;838;51.794;12.258;2022-08-02T04:25:25;18.10;27.50
1680;DHT22;838;51.794;12.258;2022-08-02T04:27:52;18.00;29.00
1680;DHT22;838;51.794;12.258;2022-08-02T04:30:18;17.70;29.90
1680;DHT22;838;51.794;12.258;2022-08-02T04:32:45;17.60;32.50
1680;DHT22;838;51.794;12.258;2022-08-02T04:35:11;17.50;32.50
1680;DHT22;838;51.794;12.258;2022-08-02T04:37:37;17.40;34.20
1680;DHT22;838;51.794;12.258;2022-08-02T04:40:10;17.30;33.90
1680;DHT22;838;51.794;12.258;2022-08-02T04:42:36;17.30;34.80
1680;DHT22;838;51.794;12.258;2022-08-02T04:45:04;17.20;36.10
1680;DHT22;838;51.794;12.258;2022-08-02T04:47:30;17.30;36.60
1680;DHT22;838;51.794;12.258;2022-08-02T04:49:55;17.50;34.70
1680;DHT22;838;51.794;12.258;2022-08-02T04:52:21;17.50;34.50
1680;DHT22;838;51.794;12.258;2022-08-02T04:54:47;17.80;32.90
1680;DHT22;838;51.794;12.258;2022-08-02T04:57:12;18.00;29.90
1680;DHT22;838;51.794;12.258;2022-08-02T04:59:57;18.00;29.60
1680;DHT22;838;51.794;12.258;2022-08-02T05:02:22;18.00;27.80
1680;DHT22;838;51.794;12.258;2022-08-02T05:04:48;17.80;28.10
1680;DHT22;838;51.794;12.258;2022-08-02T05:07:14;18.00;28.30
1680;DHT22;838;51.794;12.258;2022-08-02T05:09:39;18.20;26.80
1680;DHT22;838;51.794;12.258;2022-08-02T05:12:06;18.30;26.40
1680;DHT22;838;51.794;12.258;2022-08-02T05:14:31;18.30;25.70
1680;DHT22;838;51.794;12.258;2022-08-02T05:16:57;18.30;26.30
1680;DHT22;838;51.794;12.258;2022-08-02T05:19:23;18.50;25.60
1680;DHT22;838;51.794;12.258;2022-08-02T05:21:48;18.70;24.20
1680;DHT22;838;51.794;12.258;2022-08-02T05:24:14;18.50;24.00
1680;DHT22;838;51.794;12.258;2022-08-02T05:26:40;18.50;24.20
1680;DHT22;838;51.794;12.258;2022-08-02T05:29:05;18.30;24.50
1680;DHT22;838;51.794;12.258;2022-08-02T05:31:31;18.20;26.10
1680;DHT22;838;51.794;12.258;2022-08-02T05:33:57;18.40;24.60
1680;DHT22;838;51.794;12.258;2022-08-02T05:36:22;18.50;24.70
1680;DHT22;838;51.794;12.258;2022-08-02T05:38:48;18.80;23.00
1680;DHT22;838;51.794;12.258;2022-08-02T05:41:16;18.80;23.10
1680;DHT22;838;51.794;12.258;2022-08-02T05:43:43;19.00;21.30
1680;DHT22;838;51.794;12.258;2022-08-02T05:46:09;18.90;21.70
1680;DHT22;838;51.794;12.258;2022-08-02T05:48:35;18.80;22.40
1680;DHT22;838;51.794;12.258;2022-08-02T05:51:04;19.00;23.20
1680;DHT22;838;51.794;12.258;2022-08-02T05:59:11;20.30;17.70
1680;DHT22;838;51.794;12.258;2022-08-02T06:01:39;20.80;14.60
1680;DHT22;838;51.794;12.258;2022-08-02T06:04:09;21.30;10.00
1680;DHT22;838;51.794;12.258;2022-08-02T06:06:36;21.70;8.20
1680;DHT22;838;51.794;12.258;2022-08-02T06:09:14;21.90;7.00
1680;DHT22;838;51.794;12.258;2022-08-02T06:11:45;21.90;5.90
1680;DHT22;838;51.794;12.258;2022-08-02T06:14:12;22.10;5.80
1680;DHT22;838;51.794;12.258;2022-08-02T06:16:38;21.90;6.00
1680;DHT22;838;51.794;12.258;2022-08-02T06:19:04;21.90;5.20
1680;DHT22;838;51.794;12.258;2022-08-02T06:21:31;22.10;4.10
1680;DHT22;838;51.794;12.258;2022-08-02T06:23:57;22.30;3.80
1680;DHT22;838;51.794;12.258;2022-08-02T06:26:23;22.50;3.50
1680;DHT22;838;51.794;12.258;2022-08-02T06:28:51;22.70;1.80
1680;DHT22;838;51.794;12.258;2022-08-02T06:31:18;22.60;2.00
1680;DHT22;838;51.794;12.258;2022-08-02T06:33:45;22.90;1.80
1680;DHT22;838;51.794;12.258;2022-08-02T06:41:16;23.30;1.00
1680;DHT22;838;51.794;12.258;2022-08-02T06:44:02;23.20;1.40
1680;DHT22;838;51.794;12.258;2022-08-02T06:46:28;23.00;1.70
1680;DHT22;838;51.794;12.258;2022-08-02T06:48:54;23.00;2.50
1680;DHT22;838;51.794;12.258;2022-08-02T06:51:20;23.10;2.30
1680;DHT22;838;51.794;12.258;2022-08-02T06:53:46;23.00;1.60
1680;DHT22;838;51.794;12.258;2022-08-02T06:56:13;23.10;1.00
1680;DHT22;838;51.794;12.258;2022-08-02T06:58:38;23.30;2.00
1680;DHT22;838;51.794;12.258;2022-08-02T07:01:04;23.20;1.70
1680;DHT22;838;51.794;12.258;2022-08-02T07:03:33;22.90;3.50
1680;DHT22;838;51.794;12.258;2022-08-02T07:05:59;22.60;4.00
1680;DHT22;838;51.794;12.258;2022-08-02T07:08:26;22.60;5.10
1680;DHT22;838;51.794;12.258;2022-08-02T07:10:59;22.60;6.40
1680;DHT22;838;51.794;12.258;2022-08-02T07:13:28;22.70;5.80
1680;DHT22;838;51.794;12.258;2022-08-02T07:15:55;22.90;1.80
1680;DHT22;838;51.794;12.258;2022-08-02T07:18:22;22.90;1.70
1680;DHT22;838;51.794;12.258;2022-08-02T07:20:48;22.90;1.00
1680;DHT22;838;51.794;12.258;2022-08-02T07:23:14;23.00;1.00
1680;DHT22;838;51.794;12.258;2022-08-02T07:25:40;23.10;1.00
1680;DHT22;838;51.794;12.258;2022-08-02T07:28:11;23.50;1.00
1680;DHT22;838;51.794;12.258;2022-08-02T07:30:40;23.90;1.00
1680;DHT22;838;51.794;12.258;2022-08-02T07:33:06;23.80;1.00
1680;DHT22;838;51.794;12.258;2022-08-02T07:35:33;23.30;1.00
1680;DHT22;838;51.794;12.258;2022-08-02T07:37:59;23.50;1.00
1680;DHT22;838;51.794;12.258;2022-08-02T07:40:25;23.50;1.00
1680;DHT22;838;51.794;12.258;2022-08-02T07:42:55;23.70;1.00
1680;DHT22;838;51.794;12.258;2022-08-02T07:45:27;23.90;1.00
1680;DHT22;838;51.794;12.258;2022-08-02T07:47:52;24.00;1.00
1680;DHT22;838;51.794;12.258;2022-08-02T07:50:21;24.30;1.00
1680;DHT22;838;51.794;12.258;2022-08-02T07:52:47;24.30;1.00
1680;DHT22;838;51.794;12.258;2022-08-02T07:55:15;24.60;1.00
1680;DHT22;838;51.794;12.258;2022-08-02T07:57:42;24.80;1.00
1680;DHT22;838;51.794;12.258;2022-08-02T08:00:12;25.10;1.00
1680;DHT22;838;51.794;12.258;2022-08-02T08:02:38;25.60;1.00
1680;DHT22;838;51.794;12.258;2022-08-02T08:05:07;26.10;1.00
1680;DHT22;838;51.794;12.258;2022-08-02T08:07:33;26.00;1.00
1680;DHT22;838;51.794;12.258;2022-08-02T08:09:59;25.60;1.00
1680;DHT22;838;51.794;12.258;2022-08-02T08:12:26;25.40;1.00
1680;DHT22;838;51.794;12.258;2022-08-02T08:14:52;25.20;1.00
1680;DHT22;838;51.794;12.258;2022-08-02T08:17:17;25.10;1.00
1680;DHT22;838;51.794;12.258;2022-08-02T08:19:46;24.90;1.00
1680;DHT22;838;51.794;12.258;2022-08-02T08:22:22;25.10;1.00
1680;DHT22;838;51.794;12.258;2022-08-02T08:24:49;25.20;1.00
1680;DHT22;838;51.794;12.258;2022-08-02T08:27:18;25.20;1.00
1680;DHT22;838;51.794;12.258;2022-08-02T08:29:58;25.20;1.00
1680;DHT22;838;51.794;12.258;2022-08-02T08:32:30;25.00;1.00
1680;DHT22;838;51.794;12.258;2022-08-02T08:34:58;24.90;1.00
1680;DHT22;838;51.794;12.258;2022-08-02T08:37:35;25.30;1.00
1680;DHT22;838;51.794;12.258;2022-08-02T08:40:06;26.40;1.00
1680;DHT22;838;51.794;12.258;2022-08-02T08:42:34;28.00;1.00
1680;DHT22;838;51.794;12.258;2022-08-02T08:45:00;29.20;1.00
1680;DHT22;838;51.794;12.258;2022-08-02T08:47:37;28.50;1.00
1680;DHT22;838;51.794;12.258;2022-08-02T08:50:34;28.60;1.00
1680;DHT22;838;51.794;12.258;2022-08-02T08:53:06;29.00;1.00
1680;DHT22;838;51.794;12.258;2022-08-02T08:55:34;29.20;1.00
1680;DHT22;838;51.794;12.258;2022-08-02T08:58:01;29.90;1.00
1680;DHT22;838;51.794;12.258;2022-08-02T09:00:29;29.90;1.00
1680;DHT22;838;51.794;12.258;2022-08-02T09:02:55;29.60;1.00
1680;DHT22;838;51.794;12.258;2022-08-02T09:05:22;28.90;1.00
1680;DHT22;838;51.794;12.258;2022-08-02T09:07:49;28.70;1.00
1680;DHT22;838;51.794;12.258;2022-08-02T09:10:37;29.00;1.00
1680;DHT22;838;51.794;12.258;2022-08-02T09:13:26;30.10;1.00
1680;DHT22;838;51.794;12.258;2022-08-02T09:15:59;31.10;1.00
1680;DHT22;838;51.794;12.258;2022-08-02T09:21:00;32.10;1.00
1680;DHT22;838;51.794;12.258;2022-08-02T09:23:34;32.10;1.00
1680;DHT22;838;51.794;12.258;2022-08-02T09:26:10;33.50;1.00
1680;DHT22;838;51.794;12.258;2022-08-02T09:28:38;34.60;1.00
1680;DHT22;838;51.794;12.258;2022-08-02T09:31:07;34.60;1.00
1680;DHT22;838;51.794;12.258;2022-08-02T09:33:34;33.10;1.00
1680;DHT22;838;51.794;12.258;2022-08-02T09:38:31;34.10;1.00
1680;DHT22;838;51.794;12.258;2022-08-02T09:40:58;34.70;1.00
1680;DHT22;838;51.794;12.258;2022-08-02T09:43:41;34.70;1.00
1680;DHT22;838;51.794;12.258;2022-08-02T09:46:15;34.60;1.00
1680;DHT22;838;51.794;12.258;2022-08-02T09:48:58;34.30;1.00
1680;DHT22;838;51.794;12.258;2022-08-02T09:51:32;34.00;1.00
1680;DHT22;838;51.794;12.258;2022-08-02T09:54:07;35.30;1.00
1680;DHT22;838;51.794;12.258;2022-08-02T09:56:51;35.00;1.00
1680;DHT22;838;51.794;12.258;2022-08-02T09:59:18;33.80;1.00
1680;DHT22;838;51.794;12.258;2022-08-02T10:01:46;33.60;1.00
1680;DHT22;838;51.794;12.258;2022-08-02T10:04:13;34.40;1.00
1680;DHT22;838;51.794;12.258;2022-08-02T10:06:41;33.70;1.00
1680;DHT22;838;51.794;12.258;2022-08-02T10:09:10;32.30;1.00
1680;DHT22;838;51.794;12.258;2022-08-02T10:11:36;31.60;1.00
1680;DHT22;838;51.794;12.258;2022-08-02T10:14:04;31.20;1.00
1680;DHT22;838;51.794;12.258;2022-08-02T10:16:32;30.50;1.00
1680;DHT22;838;51.794;12.258;2022-08-02T10:18:58;30.00;1.00
1680;DHT22;838;51.794;12.258;2022-08-02T10:21:49;29.50;1.00
1680;DHT22;838;51.794;12.258;2022-08-02T10:24:21;29.10;1.00
1680;DHT22;838;51.794;12.258;2022-08-02T10:26:47;28.90;1.00
1680;DHT22;838;51.794;12.258;2022-08-02T10:29:28;28.40;1.00
1680;DHT22;838;51.794;12.258;2022-08-02T10:31:56;28.30;1.00
1680;DHT22;838;51.794;12.258;2022-08-02T10:34:28;28.10;1.00
1680;DHT22;838;51.794;12.258;2022-08-02T10:36:56;28.10;1.00
1680;DHT22;838;51.794;12.258;2022-08-02T10:39:22;27.80;1.00
1680;DHT22;838;51.794;12.258;2022-08-02T10:41:50;27.90;1.00
1680;DHT22;838;51.794;12.258;2022-08-02T10:44:27;27.80;1.00
1680;DHT22;838;51.794;12.258;2022-08-02T10:49:58;28.10;1.00
1680;DHT22;838;51.794;12.258;2022-08-02T10:52:27;28.20;1.00
1680;DHT22;838;51.794;12.258;2022-08-02T10:55:19;28.30;1.00
1680;DHT22;838;51.794;12.258;2022-08-02T10:57:44;28.30;1.00
1680;DHT22;838;51.794;12.258;2022-08-02T11:02:49;28.30;1.00
1680;DHT22;838;51.794;12.258;2022-08-02T11:05:35;28.40;1.00
1680;DHT22;838;51.794;12.258;2022-08-02T11:08:17;28.30;1.00
1680;DHT22;838;51.794;12.258;2022-08-02T11:10:43;28.30;1.00
1680;DHT22;838;51.794;12.258;2022-08-02T11:13:16;28.30;1.00
1680;DHT22;838;51.794;12.258;2022-08-02T11:16:02;28.50;1.00
1680;DHT22;838;51.794;12.258;2022-08-02T11:23:53;29.00;1.00
1680;DHT22;838;51.794;12.258;2022-08-02T11:28:54;29.10;1.00
1680;DHT22;838;51.794;12.258;2022-08-02T11:31:20;29.20;1.00
1680;DHT22;838;51.794;12.258;2022-08-02T11:33:48;29.30;1.00
1680;DHT22;838;51.794;12.258;2022-08-02T11:36:14;29.40;1.00
1680;DHT22;838;51.794;12.258;2022-08-02T11:38:43;29.30;1.00
1680;DHT22;838;51.794;12.258;2022-08-02T11:41:17;29.20;1.00
1680;DHT22;838;51.794;12.258;2022-08-02T11:43:43;29.30;1.00
1680;DHT22;838;51.794;12.258;2022-08-02T11:46:13;29.30;1.00
1680;DHT22;838;51.794;12.258;2022-08-02T11:48:40;29.30;1.00
1680;DHT22;838;51.794;12.258;2022-08-02T11:51:08;29.10;1.00
1680;DHT22;838;51.794;12.258;2022-08-02T11:53:51;29.20;1.00
1680;DHT22;838;51.794;12.258;2022-08-02T11:56:28;29.10;1.00
1680;DHT22;838;51.794;12.258;2022-08-02T11:59:09;28.80;1.00
1680;DHT22;838;51.794;12.258;2022-08-02T12:01:36;28.80;1.00
1680;DHT22;838;51.794;12.258;2022-08-02T12:04:04;28.80;1.00
1680;DHT22;838;51.794;12.258;2022-08-02T12:06:31;28.80;1.00
1680;DHT22;838;51.794;12.258;2022-08-02T12:09:11;29.00;1.00
1680;DHT22;838;51.794;12.258;2022-08-02T12:11:38;29.20;1.00
1680;DHT22;838;51.794;12.258;2022-08-02T12:14:04;29.10;1.00
1680;DHT22;838;51.794;12.258;2022-08-02T12:16:39;29.00;1.00
1680;DHT22;838;51.794;12.258;2022-08-02T12:19:25;29.30;1.00
1680;DHT22;838;51.794;12.258;2022-08-02T12:22:14;29.50;1.00
1680;DHT22;838;51.794;12.258;2022-08-02T12:24:44;29.40;1.00
1680;DHT22;838;51.794;12.258;2022-08-02T12:27:27;29.40;1.00
1680;DHT22;838;51.794;12.258;2022-08-02T12:30:02;29.10;1.00
1680;DHT22;838;51.794;12.258;2022-08-02T12:32:28;29.30;1.00
1680;DHT22;838;51.794;12.258;2022-08-02T12:35:14;29.40;1.00
1680;DHT22;838;51.794;12.258;2022-08-02T12:37:44;29.50;1.00
1680;DHT22;838;51.794;12.258;2022-08-02T12:40:29;29.60;1.00
1680;DHT22;838;51.794;12.258;2022-08-02T12:42:57;29.80;1.00
1680;DHT22;838;51.794;12.258;2022-08-02T12:45:25;29.70;1.00
1680;DHT22;838;51.794;12.258;2022-08-02T12:47:53;29.50;1.00
1680;DHT22;838;51.794;12.258;2022-08-02T12:50:27;29.40;1.00
1680;DHT22;838;51.794;12.258;2022-08-02T12:55:35;29.70;1.00
1680;DHT22;838;51.794;12.258;2022-08-02T12:58:05;29.40;1.00
1680;DHT22;838;51.794;12.258;2022-08-02T13:00:34;29.10;1.00
1680;DHT22;838;51.794;12.258;2022-08-02T13:03:00;29.00;1.00
1680;DHT22;838;51.794;12.258;2022-08-02T13:05:27;29.30;1.00
1680;DHT22;838;51.794;12.258;2022-08-02T13:07:57;29.50;1.00
1680;DHT22;838;51.794;12.258;2022-08-02T13:10:24;29.80;1.00
1680;DHT22;838;51.794;12.258;2022-08-02T13:12:51;29.80;1.00
1680;DHT22;838;51.794;12.258;2022-08-02T13:15:17;30.00;1.00
1680;DHT22;838;51.794;12.258;2022-08-02T13:17:44;30.20;1.00
1680;DHT22;838;51.794;12.258;2022-08-02T13:20:10;30.20;1.00
1680;DHT22;838;51.794;12.258;2022-08-02T13:22:39;30.00;1.00
1680;DHT22;838;51.794;12.258;2022-08-02T13:25:05;30.00;1.00
1680;DHT22;838;51.794;12.258;2022-08-02T13:27:35;30.00;1.00
1680;DHT22;838;51.794;12.258;2022-08-02T13:30:04;30.10;1.00
1680;DHT22;838;51.794;12.258;2022-08-02T13:32:31;30.10;1.00
1680;DHT22;838;51.794;12.258;2022-08-02T13:34:57;30.10;1.00
1680;DHT22;838;51.794;12.258;2022-08-02T13:37:24;30.30;1.00
1680;DHT22;838;51.794;12.258;2022-08-02T13:39:50;30.40;1.00
1680;DHT22;838;51.794;12.258;2022-08-02T13:42:16;30.60;1.00
1680;DHT22;838;51.794;12.258;2022-08-02T13:44:42;30.50;1.00
1680;DHT22;838;51.794;12.258;2022-08-02T13:47:07;30.40;1.00
1680;DHT22;838;51.794;12.258;2022-08-02T13:49:39;30.30;1.00
1680;DHT22;838;51.794;12.258;2022-08-02T13:52:05;30.20;1.00
1680;DHT22;838;51.794;12.258;2022-08-02T13:54:31;30.40;1.00
1680;DHT22;838;51.794;12.258;2022-08-02T13:56:57;30.50;1.00
1680;DHT22;838;51.794;12.258;2022-08-02T13:59:23;30.40;1.00
1680;DHT22;838;51.794;12.258;2022-08-02T14:01:48;30.60;1.00
1680;DHT22;838;51.794;12.258;2022-08-02T14:04:14;30.60;1.00
1680;DHT22;838;51.794;12.258;2022-08-02T14:06:40;30.60;1.00
1680;DHT22;838;51.794;12.258;2022-08-02T14:09:05;30.80;1.00
1680;DHT22;838;51.794;12.258;2022-08-02T14:11:31;30.90;1.00
1680;DHT22;838;51.794;12.258;2022-08-02T14:13:57;31.20;1.00
1680;DHT22;838;51.794;12.258;2022-08-02T14:16:26;31.30;1.00
1680;DHT22;838;51.794;12.258;2022-08-02T14:18:52;31.40;1.00
1680;DHT22;838;51.794;12.258;2022-08-02T14:21:21;31.40;1.00
1680;DHT22;838;51.794;12.258;2022-08-02T14:23:47;31.40;1.00
1680;DHT22;838;51.794;12.258;2022-08-02T14:26:13;31.00;1.00
1680;DHT22;838;51.794;12.258;2022-08-02T14:28:38;31.10;1.00
1680;DHT22;838;51.794;12.258;2022-08-02T14:31:04;31.10;1.00
1680;DHT22;838;51.794;12.258;2022-08-02T14:33:30;30.90;1.00
1680;DHT22;838;51.794;12.258;2022-08-02T14:35:56;30.90;1.00
1680;DHT22;838;51.794;12.258;2022-08-02T14:38:24;31.20;1.00
1680;DHT22;838;51.794;12.258;2022-08-02T14:40:50;31.30;1.00
1680;DHT22;838;51.794;12.258;2022-08-02T14:43:16;31.10;1.00
1680;DHT22;838;51.794;12.258;2022-08-02T14:46:01;31.30;1.00
1680;DHT22;838;51.794;12.258;2022-08-02T14:48:27;31.40;1.00
1680;DHT22;838;51.794;12.258;2022-08-02T14:50:54;31.20;1.00
1680;DHT22;838;51.794;12.258;2022-08-02T14:53:19;31.10;1.00
1680;DHT22;838;51.794;12.258;2022-08-02T14:55:45;31.10;1.00
1680;DHT22;838;51.794;12.258;2022-08-02T14:58:11;31.10;1.00
1680;DHT22;838;51.794;12.258;2022-08-02T15:00:46;31.40;1.00
1680;DHT22;838;51.794;12.258;2022-08-02T15:03:12;31.60;1.00
1680;DHT22;838;51.794;12.258;2022-08-02T15:05:38;31.70;1.00
1680;DHT22;838;51.794;12.258;2022-08-02T15:08:05;31.90;1.00
1680;DHT22;838;51.794;12.258;2022-08-02T15:10:30;31.90;1.00
1680;DHT22;838;51.794;12.258;2022-08-02T15:12:59;32.00;1.00
1680;DHT22;838;51.794;12.258;2022-08-02T15:15:25;31.90;1.00
1680;DHT22;838;51.794;12.258;2022-08-02T15:17:51;31.80;1.00
1680;DHT22;838;51.794;12.258;2022-08-02T15:20:16;31.80;1.00
1680;DHT22;838;51.794;12.258;2022-08-02T15:22:42;31.60;1.00
1680;DHT22;838;51.794;12.258;2022-08-02T15:25:08;31.40;1.00
1680;DHT22;838;51.794;12.258;2022-08-02T15:27:33;31.20;1.00
1680;DHT22;838;51.794;12.258;2022-08-02T15:29:59;31.00;1.00
1680;DHT22;838;51.794;12.258;2022-08-02T15:32:25;31.00;1.00
1680;DHT22;838;51.794;12.258;2022-08-02T15:34:51;31.00;1.00
1680;DHT22;838;51.794;12.258;2022-08-02T15:37:17;31.10;1.00
1680;DHT22;838;51.794;12.258;2022-08-02T15:39:43;31.30;1.00
1680;DHT22;838;51.794;12.258;2022-08-02T15:42:09;31.40;1.00
1680;DHT22;838;51.794;12.258;2022-08-02T15:44:35;31.60;1.00
1680;DHT22;838;51.794;12.258;2022-08-02T15:47:00;31.70;1.00
1680;DHT22;838;51.794;12.258;2022-08-02T15:49:26;31.80;1.00
1680;DHT22;838;51.794;12.258;2022-08-02T15:51:55;31.90;1.00
1680;DHT22;838;51.794;12.258;2022-08-02T15:54:21;32.00;1.00
1680;DHT22;838;51.794;12.258;2022-08-02T15:56:47;32.10;1.00
1680;DHT22;838;51.794;12.258;2022-08-02T15:59:13;32.20;1.00
1680;DHT22;838;51.794;12.258;2022-08-02T16:01:39;32.20;1.00
1680;DHT22;838;51.794;12.258;2022-08-02T16:04:05;32.30;1.00
1680;DHT22;838;51.794;12.258;2022-08-02T16:06:31;32.20;1.00
1680;DHT22;838;51.794;12.258;2022-08-02T16:08:57;32.30;1.00
1680;DHT22;838;51.794;12.258;2022-08-02T16:11:23;32.30;1.00
1680;DHT22;838;51.794;12.258;2022-08-02T16:13:48;31.80;1.00
1680;DHT22;838;51.794;12.258;2022-08-02T16:16:14;31.40;1.00
1680;DHT22;838;51.794;12.258;2022-08-02T16:18:40;31.00;1.00
1680;DHT22;838;51.794;12.258;2022-08-02T16:21:05;30.90;1.00
1680;DHT22;838;51.794;12.258;2022-08-02T16:23:31;31.00;1.00
1680;DHT22;838;51.794;12.258;2022-08-02T16:25:57;31.20;1.00
1680;DHT22;838;51.794;12.258;2022-08-02T16:28:23;31.30;1.00
1680;DHT22;838;51.794;12.258;2022-08-02T16:30:48;31.30;1.00
1680;DHT22;838;51.794;12.258;2022-08-02T16:33:14;31.30;1.00
1680;DHT22;838;51.794;12.258;2022-08-02T16:35:40;31.30;1.00
1680;DHT22;838;51.794;12.258;2022-08-02T16:38:06;31.20;1.00
1680;DHT22;838;51.794;12.258;2022-08-02T16:40:33;31.10;1.00
1680;DHT22;838;51.794;12.258;2022-08-02T16:43:00;30.90;1.00
1680;DHT22;838;51.794;12.258;2022-08-02T16:45:26;31.00;1.00
1680;DHT22;838;51.794;12.258;2022-08-02T16:47:55;31.00;1.00
1680;DHT22;838;51.794;12.258;2022-08-02T16:50:21;31.30;1.00
1680;DHT22;838;51.794;12.258;2022-08-02T16:52:47;31.20;1.00
1680;DHT22;838;51.794;12.258;2022-08-02T16:55:13;31.20;1.00
1680;DHT22;838;51.794;12.258;2022-08-02T16:57:39;31.30;1.00
1680;DHT22;838;51.794;12.258;2022-08-02T17:00:07;31.00;1.00
1680;DHT22;838;51.794;12.258;2022-08-02T17:02:34;31.00;1.00
1680;DHT22;838;51.794;12.258;2022-08-02T17:05:00;30.90;1.00
1680;DHT22;838;51.794;12.258;2022-08-02T17:07:26;31.00;1.00